sensor_id;sensor_type;location;lat;lon;timestamp;temperature;humidity
5246;DHT22;54412;51.206;6.888;2023-04-24T00:00:56;12.40;99.90
5246;DHT22;54412;51.206;6.888;2023-04-24T00:03:22;12.30;99.90
5246;DHT22;54412;51.206;6.888;2023-04-24T00:05:48;12.30;99.90
5246;DHT22;54412;51.206;6.888;2023-04-24T00:08:15;12.40;99.90
5246;DHT22;54412;51.206;6.888;2023-04-24T00:10:41;12.40;99.90
5246;DHT22;54412;51.206;6.888;2023-04-24T00:13:07;12.40;99.90
5246;DHT22;54412;51.206;6.888;2023-04-24T00:15:32;12.30;99.90
5246;DHT22;54412;51.206;6.888;2023-04-24T00:17:58;12.30;99.90
5246;DHT22;54412;51.206;6.888;2023-04-24T00:20:24;12.20;99.90
5246;DHT22;54412;51.206;6.888;2023-04-24T00:22:50;12.30;99.90
5246;DHT22;54412;51.206;6.888;2023-04-24T00:25:15;12.20;99.90
5246;DHT22;54412;51.206;6.888;2023-04-24T00:27:41;12.30;99.90
5246;DHT22;54412;51.206;6.888;2023-04-24T00:30:07;12.10;99.90
5246;DHT22;54412;51.206;6.888;2023-04-24T00:32:33;12.20;99.90
5246;DHT22;54412;51.206;6.888;2023-04-24T00:34:59;12.20;99.90
5246;DHT22;54412;51.206;6.888;2023-04-24T00:37:24;12.00;99.90
5246;DHT22;54412;51.206;6.888;2023-04-24T00:39:50;12.10;99.90
5246;DHT22;54412;51.206;6.888;2023-04-24T00:42:16;12.10;99.90
5246;DHT22;54412;51.206;6.888;2023-04-24T00:44:42;12.10;99.90
5246;DHT22;54412;51.206;6.888;2023-04-24T00:47:07;12.00;99.90
5246;DHT22;54412;51.206;6.888;2023-04-24T00:49:33;12.00;99.90
5246;DHT22;54412;51.206;6.888;2023-04-24T00:51:59;12.10;99.90
5246;DHT22;54412;51.206;6.888;2023-04-24T00:54:25;12.00;99.90
5246;DHT22;54412;51.206;6.888;2023-04-24T00:56:51;12.10;99.90
5246;DHT22;54412;51.206;6.888;2023-04-24T00:59:17;12.20;99.90
5246;DHT22;54412;51.206;6.888;2023-04-24T01:01:44;12.10;99.90
5246;DHT22;54412;51.206;6.888;2023-04-24T01:04:12;12.20;99.90
5246;DHT22;54412;51.206;6.888;2023-04-24T01:06:42;12.20;99.90
5246;DHT22;54412;51.206;6.888;2023-04-24T01:09:10;12.10;99.90
5246;DHT22;54412;51.206;6.888;2023-04-24T01:11:37;12.00;99.90
5246;DHT22;54412;51.206;6.888;2023-04-24T01:14:03;12.10;99.90
5246;DHT22;54412;51.206;6.888;2023-04-24T01:16:29;12.10;99.90
5246;DHT22;54412;51.206;6.888;2023-04-24T01:18:55;11.80;99.90
5246;DHT22;54412;51.206;6.888;2023-04-24T01:21:21;11.90;99.90
5246;DHT22;54412;51.206;6.888;2023-04-24T01:23:49;11.80;99.90
5246;DHT22;54412;51.206;6.888;2023-04-24T01:26:16;11.80;99.90
5246;DHT22;54412;51.206;6.888;2023-04-24T01:28:42;11.70;99.90
5246;DHT22;54412;51.206;6.888;2023-04-24T01:31:08;11.60;99.90
5246;DHT22;54412;51.206;6.888;2023-04-24T01:33:34;11.70;99.90
5246;DHT22;54412;51.206;6.888;2023-04-24T01:36:00;11.50;99.90
5246;DHT22;54412;51.206;6.888;2023-04-24T01:38:26;11.30;99.90
5246;DHT22;54412;51.206;6.888;2023-04-24T01:40:52;11.40;99.90
5246;DHT22;54412;51.206;6.888;2023-04-24T01:43:18;11.10;99.90
5246;DHT22;54412;51.206;6.888;2023-04-24T01:45:44;11.20;99.90
5246;DHT22;54412;51.206;6.888;2023-04-24T01:48:12;11.20;99.90
5246;DHT22;54412;51.206;6.888;2023-04-24T01:50:38;11.10;99.90
5246;DHT22;54412;51.206;6.888;2023-04-24T01:53:04;11.10;99.90
5246;DHT22;54412;51.206;6.888;2023-04-24T01:55:30;11.00;99.90
5246;DHT22;54412;51.206;6.888;2023-04-24T01:57:56;11.10;99.90
5246;DHT22;54412;51.206;6.888;2023-04-24T02:00:25;11.00;99.90
5246;DHT22;54412;51.206;6.888;2023-04-24T02:02:50;11.00;99.90
5246;DHT22;54412;51.206;6.888;2023-04-24T02:05:16;10.90;99.90
5246;DHT22;54412;51.206;6.888;2023-04-24T02:07:42;11.00;99.90
5246;DHT22;54412;51.206;6.888;2023-04-24T02:10:08;11.10;99.90
5246;DHT22;54412;51.206;6.888;2023-04-24T02:12:34;11.30;99.90
5246;DHT22;54412;51.206;6.888;2023-04-24T02:15:00;11.20;99.90
5246;DHT22;54412;51.206;6.888;2023-04-24T02:17:26;11.20;99.90
5246;DHT22;54412;51.206;6.888;2023-04-24T02:19:52;11.10;99.90
5246;DHT22;54412;51.206;6.888;2023-04-24T02:22:17;11.00;99.90
5246;DHT22;54412;51.206;6.888;2023-04-24T02:24:43;11.00;99.90
5246;DHT22;54412;51.206;6.888;2023-04-24T02:27:09;11.00;99.90
5246;DHT22;54412;51.206;6.888;2023-04-24T02:29:35;11.20;99.90
5246;DHT22;54412;51.206;6.888;2023-04-24T02:32:00;11.00;99.90
5246;DHT22;54412;51.206;6.888;2023-04-24T02:34:26;10.90;99.90
5246;DHT22;54412;51.206;6.888;2023-04-24T02:36:51;10.90;99.90
5246;DHT22;54412;51.206;6.888;2023-04-24T02:39:19;11.00;99.90
5246;DHT22;54412;51.206;6.888;2023-04-24T02:41:45;11.00;99.90
5246;DHT22;54412;51.206;6.888;2023-04-24T02:44:11;11.20;99.90
5246;DHT22;54412;51.206;6.888;2023-04-24T02:46:37;11.00;99.90
5246;DHT22;54412;51.206;6.888;2023-04-24T02:49:02;10.90;99.90
5246;DHT22;54412;51.206;6.888;2023-04-24T02:51:28;10.90;99.90
5246;DHT22;54412;51.206;6.888;2023-04-24T02:53:54;10.90;99.90
5246;DHT22;54412;51.206;6.888;2023-04-24T02:56:20;10.90;99.90
5246;DHT22;54412;51.206;6.888;2023-04-24T02:58:46;11.00;99.90
5246;DHT22;54412;51.206;6.888;2023-04-24T03:01:12;11.00;99.90
5246;DHT22;54412;51.206;6.888;2023-04-24T03:03:38;11.10;99.90
5246;DHT22;54412;51.206;6.888;2023-04-24T03:06:05;11.20;99.90
5246;DHT22;54412;51.206;6.888;2023-04-24T03:08:33;11.00;99.90
5246;DHT22;54412;51.206;6.888;2023-04-24T03:10:59;11.00;99.90
5246;DHT22;54412;51.206;6.888;2023-04-24T03:13:25;10.90;99.90
5246;DHT22;54412;51.206;6.888;2023-04-24T03:15:50;11.00;99.90
5246;DHT22;54412;51.206;6.888;2023-04-24T03:18:17;11.30;99.90
5246;DHT22;54412;51.206;6.888;2023-04-24T03:20:44;11.20;99.90
5246;DHT22;54412;51.206;6.888;2023-04-24T03:23:11;11.20;99.90
5246;DHT22;54412;51.206;6.888;2023-04-24T03:25:37;11.10;99.90
5246;DHT22;54412;51.206;6.888;2023-04-24T03:28:03;11.10;99.90
5246;DHT22;54412;51.206;6.888;2023-04-24T03:30:28;11.10;99.90
5246;DHT22;54412;51.206;6.888;2023-04-24T03:32:54;11.10;99.90
5246;DHT22;54412;51.206;6.888;2023-04-24T03:35:19;11.10;99.90
5246;DHT22;54412;51.206;6.888;2023-04-24T03:37:47;11.10;99.90
5246;DHT22;54412;51.206;6.888;2023-04-24T03:40:13;10.90;99.90
5246;DHT22;54412;51.206;6.888;2023-04-24T03:42:38;11.00;99.90
5246;DHT22;54412;51.206;6.888;2023-04-24T03:45:04;11.10;99.90
5246;DHT22;54412;51.206;6.888;2023-04-24T03:47:31;11.10;99.90
5246;DHT22;54412;51.206;6.888;2023-04-24T03:49:56;11.00;99.90
5246;DHT22;54412;51.206;6.888;2023-04-24T03:52:22;11.10;99.90
5246;DHT22;54412;51.206;6.888;2023-04-24T03:54:48;11.30;99.90
5246;DHT22;54412;51.206;6.888;2023-04-24T03:57:13;11.30;99.90
5246;DHT22;54412;51.206;6.888;2023-04-24T03:59:39;11.30;99.90
5246;DHT22;54412;51.206;6.888;2023-04-24T04:02:05;11.20;99.90
5246;DHT22;54412;51.206;6.888;2023-04-24T04:04:30;11.10;99.90
5246;DHT22;54412;51.206;6.888;2023-04-24T04:06:56;11.00;99.90
5246;DHT22;54412;51.206;6.888;2023-04-24T04:09:22;11.00;99.90
5246;DHT22;54412;51.206;6.888;2023-04-24T04:11:47;10.70;99.90
5246;DHT22;54412;51.206;6.888;2023-04-24T04:14:13;10.70;99.90
5246;DHT22;54412;51.206;6.888;2023-04-24T04:16:39;10.80;99.90
5246;DHT22;54412;51.206;6.888;2023-04-24T04:19:04;10.80;99.90
5246;DHT22;54412;51.206;6.888;2023-04-24T04:21:30;10.80;99.90
5246;DHT22;54412;51.206;6.888;2023-04-24T04:23:57;10.80;99.90
5246;DHT22;54412;51.206;6.888;2023-04-24T04:26:23;10.80;99.90
5246;DHT22;54412;51.206;6.888;2023-04-24T04:28:51;11.00;99.90
5246;DHT22;54412;51.206;6.888;2023-04-24T04:31:18;10.80;99.90
5246;DHT22;54412;51.206;6.888;2023-04-24T04:33:48;11.00;99.90
5246;DHT22;54412;51.206;6.888;2023-04-24T04:36:14;11.00;99.90
5246;DHT22;54412;51.206;6.888;2023-04-24T04:38:39;11.00;99.90
5246;DHT22;54412;51.206;6.888;2023-04-24T04:41:06;10.90;99.90
5246;DHT22;54412;51.206;6.888;2023-04-24T04:43:32;10.90;99.90
5246;DHT22;54412;51.206;6.888;2023-04-24T04:45:59;10.90;99.90
5246;DHT22;54412;51.206;6.888;2023-04-24T04:48:26;10.90;99.90
5246;DHT22;54412;51.206;6.888;2023-04-24T04:50:52;11.00;99.90
5246;DHT22;54412;51.206;6.888;2023-04-24T04:53:18;11.00;99.90
5246;DHT22;54412;51.206;6.888;2023-04-24T04:55:43;10.90;99.90
5246;DHT22;54412;51.206;6.888;2023-04-24T04:58:09;11.00;99.90
5246;DHT22;54412;51.206;6.888;2023-04-24T05:00:35;10.80;99.90
5246;DHT22;54412;51.206;6.888;2023-04-24T05:03:03;10.80;99.90
5246;DHT22;54412;51.206;6.888;2023-04-24T05:05:29;10.60;99.90
5246;DHT22;54412;51.206;6.888;2023-04-24T05:07:55;10.60;99.90
5246;DHT22;54412;51.206;6.888;2023-04-24T05:10:21;10.90;99.90
5246;DHT22;54412;51.206;6.888;2023-04-24T05:12:46;10.90;99.90
5246;DHT22;54412;51.206;6.888;2023-04-24T05:15:12;11.00;99.90
5246;DHT22;54412;51.206;6.888;2023-04-24T05:17:38;10.90;99.90
5246;DHT22;54412;51.206;6.888;2023-04-24T05:20:05;10.90;99.90
5246;DHT22;54412;51.206;6.888;2023-04-24T05:22:32;10.90;99.90
5246;DHT22;54412;51.206;6.888;2023-04-24T05:24:57;10.90;99.90
5246;DHT22;54412;51.206;6.888;2023-04-24T05:27:24;10.80;99.90
5246;DHT22;54412;51.206;6.888;2023-04-24T05:29:50;10.80;99.90
5246;DHT22;54412;51.206;6.888;2023-04-24T05:32:16;10.70;99.90
5246;DHT22;54412;51.206;6.888;2023-04-24T05:34:43;10.70;99.90
5246;DHT22;54412;51.206;6.888;2023-04-24T05:37:09;10.60;99.90
5246;DHT22;54412;51.206;6.888;2023-04-24T05:39:35;10.50;99.90
5246;DHT22;54412;51.206;6.888;2023-04-24T05:42:02;10.50;99.90
5246;DHT22;54412;51.206;6.888;2023-04-24T05:44:29;10.60;99.90
5246;DHT22;54412;51.206;6.888;2023-04-24T05:46:55;10.30;99.90
5246;DHT22;54412;51.206;6.888;2023-04-24T05:49:22;10.30;99.90
5246;DHT22;54412;51.206;6.888;2023-04-24T05:51:47;10.10;99.90
5246;DHT22;54412;51.206;6.888;2023-04-24T05:54:13;10.10;99.90
5246;DHT22;54412;51.206;6.888;2023-04-24T05:56:40;10.20;99.90
5246;DHT22;54412;51.206;6.888;2023-04-24T05:59:06;10.30;99.90
5246;DHT22;54412;51.206;6.888;2023-04-24T06:01:32;10.30;99.90
5246;DHT22;54412;51.206;6.888;2023-04-24T06:03:58;10.30;99.90
5246;DHT22;54412;51.206;6.888;2023-04-24T06:06:24;10.40;99.90
5246;DHT22;54412;51.206;6.888;2023-04-24T06:08:51;10.10;99.90
5246;DHT22;54412;51.206;6.888;2023-04-24T06:11:17;10.30;99.90
5246;DHT22;54412;51.206;6.888;2023-04-24T06:13:42;10.40;99.90
5246;DHT22;54412;51.206;6.888;2023-04-24T06:16:08;10.30;99.90
5246;DHT22;54412;51.206;6.888;2023-04-24T06:18:34;10.20;99.90
5246;DHT22;54412;51.206;6.888;2023-04-24T06:20:59;10.00;99.90
5246;DHT22;54412;51.206;6.888;2023-04-24T06:23:25;10.20;99.90
5246;DHT22;54412;51.206;6.888;2023-04-24T06:25:51;10.20;99.90
5246;DHT22;54412;51.206;6.888;2023-04-24T06:28:17;10.40;99.90
5246;DHT22;54412;51.206;6.888;2023-04-24T06:30:42;10.30;99.90
5246;DHT22;54412;51.206;6.888;2023-04-24T06:33:08;10.30;99.90
5246;DHT22;54412;51.206;6.888;2023-04-24T06:35:35;10.30;99.90
5246;DHT22;54412;51.206;6.888;2023-04-24T06:38:01;10.00;99.90
5246;DHT22;54412;51.206;6.888;2023-04-24T06:40:27;9.80;99.90
5246;DHT22;54412;51.206;6.888;2023-04-24T06:42:53;9.80;99.90
5246;DHT22;54412;51.206;6.888;2023-04-24T06:45:18;10.10;99.90
5246;DHT22;54412;51.206;6.888;2023-04-24T06:47:44;10.00;99.90
5246;DHT22;54412;51.206;6.888;2023-04-24T06:50:10;10.30;99.90
5246;DHT22;54412;51.206;6.888;2023-04-24T06:52:36;10.20;99.90
5246;DHT22;54412;51.206;6.888;2023-04-24T06:55:03;10.40;99.90
5246;DHT22;54412;51.206;6.888;2023-04-24T06:57:29;10.40;99.90
5246;DHT22;54412;51.206;6.888;2023-04-24T06:59:55;10.10;99.90
5246;DHT22;54412;51.206;6.888;2023-04-24T07:02:21;10.10;99.90
5246;DHT22;54412;51.206;6.888;2023-04-24T07:04:47;10.10;99.90
5246;DHT22;54412;51.206;6.888;2023-04-24T07:07:13;10.20;99.90
5246;DHT22;54412;51.206;6.888;2023-04-24T07:09:40;9.90;99.90
5246;DHT22;54412;51.206;6.888;2023-04-24T07:12:10;9.90;99.90
5246;DHT22;54412;51.206;6.888;2023-04-24T07:14:37;9.80;99.90
5246;DHT22;54412;51.206;6.888;2023-04-24T07:17:04;9.80;99.90
5246;DHT22;54412;51.206;6.888;2023-04-24T07:19:30;9.80;99.90
5246;DHT22;54412;51.206;6.888;2023-04-24T07:21:56;10.00;99.90
5246;DHT22;54412;51.206;6.888;2023-04-24T07:24:24;9.90;99.90
5246;DHT22;54412;51.206;6.888;2023-04-24T07:26:51;10.00;99.90
5246;DHT22;54412;51.206;6.888;2023-04-24T07:29:18;10.00;99.90
5246;DHT22;54412;51.206;6.888;2023-04-24T07:31:44;9.70;99.90
5246;DHT22;54412;51.206;6.888;2023-04-24T07:34:10;9.80;99.90
5246;DHT22;54412;51.206;6.888;2023-04-24T07:36:36;9.80;99.90
5246;DHT22;54412;51.206;6.888;2023-04-24T07:39:04;9.70;99.90
5246;DHT22;54412;51.206;6.888;2023-04-24T07:41:30;9.60;99.90
5246;DHT22;54412;51.206;6.888;2023-04-24T07:43:55;9.60;99.90
5246;DHT22;54412;51.206;6.888;2023-04-24T07:46:21;9.40;99.90
5246;DHT22;54412;51.206;6.888;2023-04-24T07:48:48;9.50;99.90
5246;DHT22;54412;51.206;6.888;2023-04-24T07:51:15;9.30;99.90
5246;DHT22;54412;51.206;6.888;2023-04-24T07:53:41;9.20;99.90
5246;DHT22;54412;51.206;6.888;2023-04-24T07:56:07;8.90;99.90
5246;DHT22;54412;51.206;6.888;2023-04-24T07:58:33;9.00;99.90
5246;DHT22;54412;51.206;6.888;2023-04-24T08:00:59;9.00;99.90
5246;DHT22;54412;51.206;6.888;2023-04-24T08:03:25;9.00;99.90
5246;DHT22;54412;51.206;6.888;2023-04-24T08:05:51;8.90;99.90
5246;DHT22;54412;51.206;6.888;2023-04-24T08:08:17;8.90;99.90
5246;DHT22;54412;51.206;6.888;2023-04-24T08:10:43;8.90;99.90
5246;DHT22;54412;51.206;6.888;2023-04-24T08:13:08;8.70;99.90
5246;DHT22;54412;51.206;6.888;2023-04-24T08:15:36;8.80;99.90
5246;DHT22;54412;51.206;6.888;2023-04-24T08:18:02;8.80;99.90
5246;DHT22;54412;51.206;6.888;2023-04-24T08:20:28;8.90;99.90
5246;DHT22;54412;51.206;6.888;2023-04-24T08:22:54;9.00;99.90
5246;DHT22;54412;51.206;6.888;2023-04-24T08:25:20;9.00;99.90
5246;DHT22;54412;51.206;6.888;2023-04-24T08:27:48;9.00;99.90
5246;DHT22;54412;51.206;6.888;2023-04-24T08:30:14;9.10;99.90
5246;DHT22;54412;51.206;6.888;2023-04-24T08:32:39;9.20;99.90
5246;DHT22;54412;51.206;6.888;2023-04-24T08:35:05;9.20;99.90
5246;DHT22;54412;51.206;6.888;2023-04-24T08:37:34;9.00;99.90
5246;DHT22;54412;51.206;6.888;2023-04-24T08:40:02;9.00;99.90
5246;DHT22;54412;51.206;6.888;2023-04-24T08:42:39;9.20;99.90
5246;DHT22;54412;51.206;6.888;2023-04-24T08:45:10;9.40;99.90
5246;DHT22;54412;51.206;6.888;2023-04-24T08:47:38;9.60;99.90
5246;DHT22;54412;51.206;6.888;2023-04-24T08:50:06;9.60;99.90
5246;DHT22;54412;51.206;6.888;2023-04-24T08:52:34;9.60;99.90
5246;DHT22;54412;51.206;6.888;2023-04-24T08:55:01;9.60;99.90
5246;DHT22;54412;51.206;6.888;2023-04-24T08:57:28;9.60;99.90
5246;DHT22;54412;51.206;6.888;2023-04-24T08:59:55;9.70;99.90
5246;DHT22;54412;51.206;6.888;2023-04-24T09:02:23;9.70;99.90
5246;DHT22;54412;51.206;6.888;2023-04-24T09:04:50;9.60;99.90
5246;DHT22;54412;51.206;6.888;2023-04-24T09:07:18;9.60;99.90
5246;DHT22;54412;51.206;6.888;2023-04-24T09:09:45;9.50;99.90
5246;DHT22;54412;51.206;6.888;2023-04-24T09:12:11;9.50;99.90
5246;DHT22;54412;51.206;6.888;2023-04-24T09:14:37;9.50;99.90
5246;DHT22;54412;51.206;6.888;2023-04-24T09:17:07;9.40;99.90
5246;DHT22;54412;51.206;6.888;2023-04-24T09:19:33;9.40;99.90
5246;DHT22;54412;51.206;6.888;2023-04-24T09:21:59;9.60;99.90
5246;DHT22;54412;51.206;6.888;2023-04-24T09:24:24;9.60;99.90
5246;DHT22;54412;51.206;6.888;2023-04-24T09:26:59;9.60;99.90
5246;DHT22;54412;51.206;6.888;2023-04-24T09:29:27;9.70;99.90
5246;DHT22;54412;51.206;6.888;2023-04-24T09:31:53;9.70;99.90
5246;DHT22;54412;51.206;6.888;2023-04-24T09:34:23;9.70;99.90
5246;DHT22;54412;51.206;6.888;2023-04-24T09:36:50;9.70;99.90
5246;DHT22;54412;51.206;6.888;2023-04-24T09:39:17;9.70;99.90
5246;DHT22;54412;51.206;6.888;2023-04-24T09:41:54;9.70;99.90
5246;DHT22;54412;51.206;6.888;2023-04-24T09:44:24;9.60;99.90
5246;DHT22;54412;51.206;6.888;2023-04-24T09:46:57;9.50;99.90
5246;DHT22;54412;51.206;6.888;2023-04-24T09:49:25;9.60;99.90
5246;DHT22;54412;51.206;6.888;2023-04-24T09:52:06;9.50;99.90
5246;DHT22;54412;51.206;6.888;2023-04-24T09:54:33;9.70;99.90
5246;DHT22;54412;51.206;6.888;2023-04-24T09:56:59;9.80;99.90
5246;DHT22;54412;51.206;6.888;2023-04-24T09:59:27;9.80;99.90
5246;DHT22;54412;51.206;6.888;2023-04-24T10:01:53;9.80;99.90
5246;DHT22;54412;51.206;6.888;2023-04-24T10:04:27;9.90;99.90
5246;DHT22;54412;51.206;6.888;2023-04-24T10:06:55;9.80;99.90
5246;DHT22;54412;51.206;6.888;2023-04-24T10:09:24;9.70;99.90
5246;DHT22;54412;51.206;6.888;2023-04-24T10:11:52;9.70;99.90
5246;DHT22;54412;51.206;6.888;2023-04-24T10:14:24;9.60;99.90
5246;DHT22;54412;51.206;6.888;2023-04-24T10:16:53;9.80;99.90
5246;DHT22;54412;51.206;6.888;2023-04-24T10:19:25;9.80;99.90
5246;DHT22;54412;51.206;6.888;2023-04-24T10:21:52;9.80;99.90
5246;DHT22;54412;51.206;6.888;2023-04-24T10:24:20;9.90;99.90
5246;DHT22;54412;51.206;6.888;2023-04-24T10:26:46;9.80;99.90
5246;DHT22;54412;51.206;6.888;2023-04-24T10:29:17;9.90;99.90
5246;DHT22;54412;51.206;6.888;2023-04-24T10:31:44;9.80;99.90
5246;DHT22;54412;51.206;6.888;2023-04-24T10:34:15;10.00;99.90
5246;DHT22;54412;51.206;6.888;2023-04-24T10:36:46;10.00;99.90
5246;DHT22;54412;51.206;6.888;2023-04-24T10:39:16;10.10;99.90
5246;DHT22;54412;51.206;6.888;2023-04-24T10:41:44;10.20;99.90
5246;DHT22;54412;51.206;6.888;2023-04-24T10:44:14;10.00;99.90
5246;DHT22;54412;51.206;6.888;2023-04-24T10:46:46;10.00;99.90
5246;DHT22;54412;51.206;6.888;2023-04-24T10:49:30;10.10;99.90
5246;DHT22;54412;51.206;6.888;2023-04-24T10:52:02;10.10;99.90
5246;DHT22;54412;51.206;6.888;2023-04-24T11:00:13;10.10;99.90
5246;DHT22;54412;51.206;6.888;2023-04-24T11:02:41;10.00;99.90
5246;DHT22;54412;51.206;6.888;2023-04-24T11:05:15;10.00;99.90
5246;DHT22;54412;51.206;6.888;2023-04-24T11:08:11;10.30;99.90
5246;DHT22;54412;51.206;6.888;2023-04-24T11:10:45;10.40;99.90
5246;DHT22;54412;51.206;6.888;2023-04-24T11:13:22;10.50;99.90
5246;DHT22;54412;51.206;6.888;2023-04-24T11:18:52;10.40;99.90
5246;DHT22;54412;51.206;6.888;2023-04-24T11:21:40;10.50;99.90
5246;DHT22;54412;51.206;6.888;2023-04-24T11:24:27;10.50;99.90
5246;DHT22;54412;51.206;6.888;2023-04-24T11:27:18;10.50;99.90
5246;DHT22;54412;51.206;6.888;2023-04-24T11:29:58;10.30;99.90
5246;DHT22;54412;51.206;6.888;2023-04-24T11:32:27;10.40;99.90
5246;DHT22;54412;51.206;6.888;2023-04-24T11:35:14;10.40;99.90
5246;DHT22;54412;51.206;6.888;2023-04-24T11:37:53;10.40;99.90
5246;DHT22;54412;51.206;6.888;2023-04-24T11:40:21;10.60;99.90
5246;DHT22;54412;51.206;6.888;2023-04-24T11:42:52;10.70;99.90
5246;DHT22;54412;51.206;6.888;2023-04-24T11:45:27;10.50;99.90
5246;DHT22;54412;51.206;6.888;2023-04-24T11:47:55;10.50;99.90
5246;DHT22;54412;51.206;6.888;2023-04-24T11:50:22;10.60;99.90
5246;DHT22;54412;51.206;6.888;2023-04-24T11:52:51;10.80;99.90
5246;DHT22;54412;51.206;6.888;2023-04-24T11:57:44;11.10;99.90
5246;DHT22;54412;51.206;6.888;2023-04-24T12:00:17;11.00;99.90
5246;DHT22;54412;51.206;6.888;2023-04-24T12:02:51;10.90;99.90
5246;DHT22;54412;51.206;6.888;2023-04-24T12:05:27;10.80;99.90
5246;DHT22;54412;51.206;6.888;2023-04-24T12:07:53;10.80;99.90
5246;DHT22;54412;51.206;6.888;2023-04-24T12:10:21;10.70;99.90
5246;DHT22;54412;51.206;6.888;2023-04-24T12:12:51;10.70;99.90
5246;DHT22;54412;51.206;6.888;2023-04-24T12:15:18;10.80;99.90
5246;DHT22;54412;51.206;6.888;2023-04-24T12:17:46;11.00;99.90
5246;DHT22;54412;51.206;6.888;2023-04-24T12:20:13;11.10;99.90
5246;DHT22;54412;51.206;6.888;2023-04-24T12:22:47;11.20;99.90
5246;DHT22;54412;51.206;6.888;2023-04-24T12:25:16;11.00;99.90
5246;DHT22;54412;51.206;6.888;2023-04-24T12:27:51;11.00;99.90
5246;DHT22;54412;51.206;6.888;2023-04-24T12:30:19;11.10;99.90
5246;DHT22;54412;51.206;6.888;2023-04-24T12:32:47;11.40;99.90
5246;DHT22;54412;51.206;6.888;2023-04-24T12:35:19;11.50;99.90
5246;DHT22;54412;51.206;6.888;2023-04-24T12:37:46;11.50;99.90
5246;DHT22;54412;51.206;6.888;2023-04-24T12:40:12;11.60;99.90
5246;DHT22;54412;51.206;6.888;2023-04-24T12:42:47;11.70;99.90
5246;DHT22;54412;51.206;6.888;2023-04-24T12:45:15;11.90;99.90
5246;DHT22;54412;51.206;6.888;2023-04-24T12:47:43;11.90;99.90
5246;DHT22;54412;51.206;6.888;2023-04-24T12:50:12;11.80;99.90
5246;DHT22;54412;51.206;6.888;2023-04-24T12:52:40;11.60;99.90
5246;DHT22;54412;51.206;6.888;2023-04-24T12:55:07;11.60;99.90
5246;DHT22;54412;51.206;6.888;2023-04-24T12:57:35;11.80;99.90
5246;DHT22;54412;51.206;6.888;2023-04-24T13:00:03;12.20;99.90
5246;DHT22;54412;51.206;6.888;2023-04-24T13:02:31;12.20;99.90
5246;DHT22;54412;51.206;6.888;2023-04-24T13:04:58;12.20;99.90
5246;DHT22;54412;51.206;6.888;2023-04-24T13:07:25;12.20;99.90
5246;DHT22;54412;51.206;6.888;2023-04-24T13:09:53;12.20;99.90
5246;DHT22;54412;51.206;6.888;2023-04-24T13:12:20;12.30;99.90
5246;DHT22;54412;51.206;6.888;2023-04-24T13:14:46;12.10;99.90
5246;DHT22;54412;51.206;6.888;2023-04-24T13:17:12;12.10;99.90
5246;DHT22;54412;51.206;6.888;2023-04-24T13:19:42;12.10;99.90
5246;DHT22;54412;51.206;6.888;2023-04-24T13:22:10;12.30;99.90
5246;DHT22;54412;51.206;6.888;2023-04-24T13:24:38;12.30;99.90
5246;DHT22;54412;51.206;6.888;2023-04-24T13:27:08;11.90;99.90
5246;DHT22;54412;51.206;6.888;2023-04-24T13:29:34;11.80;99.90
5246;DHT22;54412;51.206;6.888;2023-04-24T13:32:00;11.70;99.90
5246;DHT22;54412;51.206;6.888;2023-04-24T13:34:26;11.60;99.90
5246;DHT22;54412;51.206;6.888;2023-04-24T13:36:53;11.70;99.90
5246;DHT22;54412;51.206;6.888;2023-04-24T13:39:21;11.80;99.90
5246;DHT22;54412;51.206;6.888;2023-04-24T13:41:47;12.00;99.90
5246;DHT22;54412;51.206;6.888;2023-04-24T13:44:14;12.00;99.90
5246;DHT22;54412;51.206;6.888;2023-04-24T13:46:45;12.00;99.90
5246;DHT22;54412;51.206;6.888;2023-04-24T13:49:13;12.00;99.90
5246;DHT22;54412;51.206;6.888;2023-04-24T13:51:40;12.20;99.90
5246;DHT22;54412;51.206;6.888;2023-04-24T13:54:06;12.40;99.90
5246;DHT22;54412;51.206;6.888;2023-04-24T13:56:32;12.60;99.90
5246;DHT22;54412;51.206;6.888;2023-04-24T13:58:58;12.80;99.90
5246;DHT22;54412;51.206;6.888;2023-04-24T14:01:23;12.70;99.90
5246;DHT22;54412;51.206;6.888;2023-04-24T14:03:54;12.50;99.90
5246;DHT22;54412;51.206;6.888;2023-04-24T14:06:21;12.40;99.90
5246;DHT22;54412;51.206;6.888;2023-04-24T14:08:47;12.40;99.90
5246;DHT22;54412;51.206;6.888;2023-04-24T14:11:13;12.30;99.90
5246;DHT22;54412;51.206;6.888;2023-04-24T14:13:41;12.30;99.90
5246;DHT22;54412;51.206;6.888;2023-04-24T14:16:08;12.10;99.90
5246;DHT22;54412;51.206;6.888;2023-04-24T14:18:33;11.90;99.90
5246;DHT22;54412;51.206;6.888;2023-04-24T14:20:59;11.80;99.90
5246;DHT22;54412;51.206;6.888;2023-04-24T14:23:27;11.90;99.90
5246;DHT22;54412;51.206;6.888;2023-04-24T14:25:52;12.00;99.90
5246;DHT22;54412;51.206;6.888;2023-04-24T14:28:20;12.00;99.90
5246;DHT22;54412;51.206;6.888;2023-04-24T14:30:47;12.00;99.90
5246;DHT22;54412;51.206;6.888;2023-04-24T14:33:13;12.00;99.90
5246;DHT22;54412;51.206;6.888;2023-04-24T14:35:41;12.20;99.90
5246;DHT22;54412;51.206;6.888;2023-04-24T14:38:08;12.20;99.90
5246;DHT22;54412;51.206;6.888;2023-04-24T14:40:34;12.20;99.90
5246;DHT22;54412;51.206;6.888;2023-04-24T14:43:00;12.30;99.90
5246;DHT22;54412;51.206;6.888;2023-04-24T14:45:26;12.20;99.90
5246;DHT22;54412;51.206;6.888;2023-04-24T14:47:52;12.20;99.90
5246;DHT22;54412;51.206;6.888;2023-04-24T14:50:18;12.30;99.90
5246;DHT22;54412;51.206;6.888;2023-04-24T14:52:44;12.20;99.90
5246;DHT22;54412;51.206;6.888;2023-04-24T14:55:10;12.20;99.90
5246;DHT22;54412;51.206;6.888;2023-04-24T14:57:36;12.30;99.90
5246;DHT22;54412;51.206;6.888;2023-04-24T15:00:06;12.20;99.90
5246;DHT22;54412;51.206;6.888;2023-04-24T15:02:34;12.20;99.90
5246;DHT22;54412;51.206;6.888;2023-04-24T15:05:02;12.30;99.90
5246;DHT22;54412;51.206;6.888;2023-04-24T15:07:29;12.50;99.90
5246;DHT22;54412;51.206;6.888;2023-04-24T15:09:56;12.50;99.90
5246;DHT22;54412;51.206;6.888;2023-04-24T15:12:21;12.60;99.90
5246;DHT22;54412;51.206;6.888;2023-04-24T15:14:47;12.80;99.90
5246;DHT22;54412;51.206;6.888;2023-04-24T15:17:13;12.80;99.90
5246;DHT22;54412;51.206;6.888;2023-04-24T15:19:38;12.80;99.90
5246;DHT22;54412;51.206;6.888;2023-04-24T15:22:04;12.90;99.90
5246;DHT22;54412;51.206;6.888;2023-04-24T15:24:30;12.90;99.90
5246;DHT22;54412;51.206;6.888;2023-04-24T15:26:55;13.00;99.90
5246;DHT22;54412;51.206;6.888;2023-04-24T15:29:22;12.80;99.90
5246;DHT22;54412;51.206;6.888;2023-04-24T15:31:48;12.80;99.90
5246;DHT22;54412;51.206;6.888;2023-04-24T15:34:13;12.70;99.90
5246;DHT22;54412;51.206;6.888;2023-04-24T15:36:39;12.80;99.90
5246;DHT22;54412;51.206;6.888;2023-04-24T15:39:05;12.80;99.90
5246;DHT22;54412;51.206;6.888;2023-04-24T15:41:30;12.90;99.90
5246;DHT22;54412;51.206;6.888;2023-04-24T15:43:57;12.80;99.90
5246;DHT22;54412;51.206;6.888;2023-04-24T15:46:23;12.80;99.90
5246;DHT22;54412;51.206;6.888;2023-04-24T15:48:49;13.00;99.90
5246;DHT22;54412;51.206;6.888;2023-04-24T15:51:15;13.00;99.90
5246;DHT22;54412;51.206;6.888;2023-04-24T15:53:40;12.90;99.90
5246;DHT22;54412;51.206;6.888;2023-04-24T15:56:06;12.90;99.90
5246;DHT22;54412;51.206;6.888;2023-04-24T15:58:32;13.00;99.90
5246;DHT22;54412;51.206;6.888;2023-04-24T16:00:57;13.00;99.90